Gil Vicente — CSKG — position and weather

sailwx.info

Track history (hours):
 
Tides and Currents Weather Stations Pressure Air Temp Water Temp Dewpoint Dewpoint Depression Visibility Wind Speed Wind Dir Waves Ship Positions

Gil Vicente

Last reported at 2015-Jan-29 09:33 UTC. Time now 2015-Jan-29 10:19 UTC.
Position N 38°39' W 009°05'.

Length 49 m.

Type: Passenger vessel. MMSI: 263701390.

Date/timePositionNaut miles runAvg speedWind from/ knotsBaromVisibWave heightAir tempDewpointWater temp
2015-Jan-29 09:33N 38°39' W 009°05'0 0.0
2015-Jan-29 08:33N 38°39' W 009°05'1 0.8
2015-Jan-29 07:33N 38°39' W 009°06'1 0.7
2015-Jan-29 06:33N 38°39' W 009°05'4 0.4
2015-Jan-28 20:33N 38°42' W 009°08'0 0.3
2015-Jan-28 19:33N 38°42' W 009°08'1 1.1
2015-Jan-28 18:33N 38°41' W 009°08'3 3.0
2015-Jan-28 17:33N 38°39' W 009°05'4 3.9
2015-Jan-28 16:33N 38°42' W 009°08'1 1.4
2015-Jan-28 15:33N 38°41' W 009°08'0 0.1
2015-Jan-28 14:33N 38°41' W 009°08'0 0.1
2015-Jan-28 13:33N 38°41' W 009°08'0 0.1
2015-Jan-28 12:33N 38°41' W 009°08'0 0.1
2015-Jan-28 11:33N 38°41' W 009°08'3 2.7
2015-Jan-28 10:32N 38°39' W 009°05'2 2.4
2015-Jan-28 09:34N 38°40' W 009°08'2 2.3
2015-Jan-28 08:33N 38°42' W 009°08'1 1.2
2015-Jan-28 07:33N 38°41' W 009°08'1 0.1
2015-Jan-27 19:33N 38°42' W 009°08'0 0.3
2015-Jan-27 18:33N 38°42' W 009°08'3 2.5
2015-Jan-27 17:33N 38°40' W 009°07'2 1.6
2015-Jan-27 16:33N 38°39' W 009°05'1 0.9
2015-Jan-27 15:34N 38°40' W 009°06'1 0.3
2015-Jan-27 11:21N 38°39' W 009°05'2 2.1
2015-Jan-27 10:33N 38°40' W 009°07'3 2.8
2015-Jan-27 09:33N 38°42' W 009°08'0 0.0
2015-Jan-27 08:33N 38°42' W 009°08'3 2.5
2015-Jan-27 07:33N 38°40' W 009°07'2 0.2
2015-Jan-26 20:06N 38°39' W 009°05'4 7.1
2015-Jan-26 19:33N 38°42' W 009°08'0 0.3
2015-Jan-26 18:33N 38°42' W 009°08'2 2.5
2015-Jan-26 17:33N 38°40' W 009°07'2 1.6
2015-Jan-26 16:33N 38°39' W 009°05'1 0.8
2015-Jan-26 15:33N 38°40' W 009°06'1 1.2
2015-Jan-26 14:33N 38°39' W 009°05'0 0.0
2015-Jan-26 13:32N 38°39' W 009°05'0 0.0
2015-Jan-26 12:33N 38°39' W 009°05'0 0.0
2015-Jan-26 11:33N 38°39' W 009°05'1 1.4
2015-Jan-26 10:33N 38°40' W 009°06'0 0.2
2015-Jan-26 09:33N 38°40' W 009°06'3 2.7
2015-Jan-26 08:33N 38°42' W 009°08'0 0.5
2015-Jan-26 07:33N 38°42' W 009°08'4 4.0
2015-Jan-26 06:33N 38°39' W 009°05'  
2015-Jan-23 10:19N 38°39' W 009°05'4 5.2
2015-Jan-23 09:33N 38°42' W 009°08'0 0.0
2015-Jan-23 08:34N 38°42' W 009°08'3 2.6
2015-Jan-23 07:34N 38°40' W 009°07'2 0.2
2015-Jan-22 19:34N 38°42' W 009°08'0 0.3
2015-Jan-22 18:33N 38°42' W 009°08'2 2.3
2015-Jan-22 17:34N 38°40' W 009°07'2 1.9
2015-Jan-22 16:34N 38°39' W 009°05'1 0.9
2015-Jan-22 15:33N 38°40' W 009°06'1 0.2
2015-Jan-22 10:33N 38°39' W 009°05'4 4.2
2015-Jan-22 09:33N 38°42' W 009°08'0 0.0
2015-Jan-22 08:33N 38°42' W 009°08'3 2.6
2015-Jan-22 07:33N 38°40' W 009°07'2 0.1
2015-Jan-21 10:13N 38°39' W 009°05'4 6.1
2015-Jan-21 09:33N 38°42' W 009°08'0 0.0
2015-Jan-21 08:33N 38°42' W 009°08'3 2.6
2015-Jan-21 07:34N 38°40' W 009°07'2 0.1
2015-Jan-20 09:33N 38°39' W 009°05'0 0.2
2015-Jan-20 08:33N 38°39' W 009°05'0 0.2
2015-Jan-20 07:33N 38°39' W 009°05'0 0.1
2015-Jan-20 06:33N 38°39' W 009°05'4 0.4
2015-Jan-19 20:33N 38°42' W 009°08'0 0.3
2015-Jan-19 19:33N 38°42' W 009°08'1 1.1
2015-Jan-19 18:33N 38°41' W 009°08'3 3.0
2015-Jan-19 17:33N 38°39' W 009°05'4 3.9
2015-Jan-19 16:33N 38°42' W 009°08'2 1.6
2015-Jan-19 15:33N 38°41' W 009°08'0 0.1
2015-Jan-19 14:33N 38°41' W 009°08'0 0.3
2015-Jan-19 13:33N 38°41' W 009°08'0 0.0
2015-Jan-19 12:33N 38°41' W 009°08'0 0.0
2015-Jan-19 11:33N 38°41' W 009°08'3 2.6
2015-Jan-19 10:33N 38°39' W 009°05'1 1.3
2015-Jan-19 09:33N 38°40' W 009°06'  
Track history (hours):
 
Tides and Currents Weather Stations Pressure Air Temp Water Temp Dewpoint Dewpoint Depression Visibility Wind Speed Wind Dir Waves Ship Positions

Gil Vicente

Last reported at 2015-Jan-29 09:33 UTC. Time now 2015-Jan-29 10:19 UTC.
Position N 38°39' W 009°05'.

Length 49 m.

Type: Passenger vessel. MMSI: 263701390.

Date/timePositionNaut miles runAvg speedWind from/ knotsBaromVisibWave heightAir tempDewpointWater temp
2015-Jan-29 09:33N 38°39' W 009°05'0 0.0
2015-Jan-29 08:33N 38°39' W 009°05'1 0.8
2015-Jan-29 07:33N 38°39' W 009°06'1 0.7
2015-Jan-29 06:33N 38°39' W 009°05'4 0.4
2015-Jan-28 20:33N 38°42' W 009°08'0 0.3
2015-Jan-28 19:33N 38°42' W 009°08'1 1.1
2015-Jan-28 18:33N 38°41' W 009°08'3 3.0
2015-Jan-28 17:33N 38°39' W 009°05'4 3.9
2015-Jan-28 16:33N 38°42' W 009°08'1 1.4
2015-Jan-28 15:33N 38°41' W 009°08'0 0.1
2015-Jan-28 14:33N 38°41' W 009°08'0 0.1
2015-Jan-28 13:33N 38°41' W 009°08'0 0.1
2015-Jan-28 12:33N 38°41' W 009°08'0 0.1
2015-Jan-28 11:33N 38°41' W 009°08'3 2.7
2015-Jan-28 10:32N 38°39' W 009°05'2 2.4
2015-Jan-28 09:34N 38°40' W 009°08'2 2.3
2015-Jan-28 08:33N 38°42' W 009°08'1 1.2
2015-Jan-28 07:33N 38°41' W 009°08'1 0.1
2015-Jan-27 19:33N 38°42' W 009°08'0 0.3
2015-Jan-27 18:33N 38°42' W 009°08'3 2.5
2015-Jan-27 17:33N 38°40' W 009°07'2 1.6
2015-Jan-27 16:33N 38°39' W 009°05'1 0.9
2015-Jan-27 15:34N 38°40' W 009°06'1 0.3
2015-Jan-27 11:21N 38°39' W 009°05'2 2.1
2015-Jan-27 10:33N 38°40' W 009°07'3 2.8
2015-Jan-27 09:33N 38°42' W 009°08'0 0.0
2015-Jan-27 08:33N 38°42' W 009°08'3 2.5
2015-Jan-27 07:33N 38°40' W 009°07'2 0.2
2015-Jan-26 20:06N 38°39' W 009°05'4 7.1
2015-Jan-26 19:33N 38°42' W 009°08'0 0.3
2015-Jan-26 18:33N 38°42' W 009°08'2 2.5
2015-Jan-26 17:33N 38°40' W 009°07'2 1.6
2015-Jan-26 16:33N 38°39' W 009°05'1 0.8
2015-Jan-26 15:33N 38°40' W 009°06'1 1.2
2015-Jan-26 14:33N 38°39' W 009°05'0 0.0
2015-Jan-26 13:32N 38°39' W 009°05'0 0.0
2015-Jan-26 12:33N 38°39' W 009°05'0 0.0
2015-Jan-26 11:33N 38°39' W 009°05'1 1.4
2015-Jan-26 10:33N 38°40' W 009°06'0 0.2
2015-Jan-26 09:33N 38°40' W 009°06'3 2.7
2015-Jan-26 08:33N 38°42' W 009°08'0 0.5
2015-Jan-26 07:33N 38°42' W 009°08'4 4.0
2015-Jan-26 06:33N 38°39' W 009°05'  
2015-Jan-23 10:19N 38°39' W 009°05'4 5.2
2015-Jan-23 09:33N 38°42' W 009°08'0 0.0
2015-Jan-23 08:34N 38°42' W 009°08'3 2.6
2015-Jan-23 07:34N 38°40' W 009°07'2 0.2
2015-Jan-22 19:34N 38°42' W 009°08'0 0.3
2015-Jan-22 18:33N 38°42' W 009°08'2 2.3
2015-Jan-22 17:34N 38°40' W 009°07'2 1.9
2015-Jan-22 16:34N 38°39' W 009°05'1 0.9
2015-Jan-22 15:33N 38°40' W 009°06'1 0.2
2015-Jan-22 10:33N 38°39' W 009°05'4 4.2
2015-Jan-22 09:33N 38°42' W 009°08'0 0.0
2015-Jan-22 08:33N 38°42' W 009°08'3 2.6
2015-Jan-22 07:33N 38°40' W 009°07'2 0.1
2015-Jan-21 10:13N 38°39' W 009°05'4 6.1
2015-Jan-21 09:33N 38°42' W 009°08'0 0.0
2015-Jan-21 08:33N 38°42' W 009°08'3 2.6
2015-Jan-21 07:34N 38°40' W 009°07'2 0.1
2015-Jan-20 09:33N 38°39' W 009°05'0 0.2
2015-Jan-20 08:33N 38°39' W 009°05'0 0.2
2015-Jan-20 07:33N 38°39' W 009°05'0 0.1
2015-Jan-20 06:33N 38°39' W 009°05'4 0.4
2015-Jan-19 20:33N 38°42' W 009°08'0 0.3
2015-Jan-19 19:33N 38°42' W 009°08'1 1.1
2015-Jan-19 18:33N 38°41' W 009°08'3 3.0
2015-Jan-19 17:33N 38°39' W 009°05'4 3.9
2015-Jan-19 16:33N 38°42' W 009°08'2 1.6
2015-Jan-19 15:33N 38°41' W 009°08'0 0.1
2015-Jan-19 14:33N 38°41' W 009°08'0 0.3
2015-Jan-19 13:33N 38°41' W 009°08'0 0.0
2015-Jan-19 12:33N 38°41' W 009°08'0 0.0
2015-Jan-19 11:33N 38°41' W 009°08'3 2.6
2015-Jan-19 10:33N 38°39' W 009°05'1 1.3
2015-Jan-19 09:33N 38°40' W 009°06'  

Dump ship's entire track history